Altoona, Iowa
Current Conditions -  °F | °C
As of 4:35 PM on Monday 24 Nov 2014 (Local Time) from KIKV Reporting Station
Overcast Overcast  
Wind Chill: 13°   Ceiling: 2400
Heat Index: 27°   Visibility: 10mi
Dew Point: 18°   Wind: 20mph
Humidity: 69%   Direction: 290°WNW
Pressure: 29.78"   Gusts: 29mph
Location:  41.64°N, 93.46°W
Report Text: KIKV 242235Z AUTO 29017G25KT 10SM OVC024 M03/M08 A2978 RMK AO2
Loading
Personal Weather Stations






























Interactive Weather Map New forecast layout! Learn more

10-Day Weather Forecast

Advertisements
Track Severe Weather on mobile